Time;durP1;ratioP1;P1;durP2;ratioP2;P2;SDS_P1;SDS_P2;PMS_P1;PMS_P2;Temp;Humidity;BMP_temperature;BMP_pressure;BME280_temperature;BME280_humidity;BME280_pressure;Samples;Min_cycle;Max_cycle;Signal;HPM_P1;HPM_P2
2021/01/18 00:00:46;;;;;;;;;56.20;44.00;;;;;-0.07;36.89;99252.09;6230777;28;126889;-57
2021/01/18 00:03:48;;;;;;;;;55.25;44.25;;;;;-0.14;36.71;99256.28;6230539;28;126663;-57
2021/01/18 00:06:49;;;;;;;;;62.50;46.75;;;;;-0.23;36.96;99257.16;6214952;28;127291;-57
2021/01/18 00:09:51;;;;;;;;;65.40;48.00;;;;;-0.19;37.06;99255.91;6210851;28;127100;-57
2021/01/18 00:12:55;;;;;;;;;62.50;47.00;;;;;-0.19;37.17;99252.41;6207406;28;126483;-57
2021/01/18 00:15:56;;;;;;;;;61.60;47.00;;;;;-0.14;37.18;99252.81;6215303;28;124582;-57
2021/01/18 00:18:59;;;;;;;;;60.00;45.00;;;;;-0.20;37.02;99253.41;6231553;27;125354;-58
2021/01/18 00:22:00;;;;;;;;;58.80;46.00;;;;;-0.40;36.92;99226.16;6236368;27;126911;-57
2021/01/18 00:25:05;;;;;;;;;62.20;46.80;;;;;-0.23;37.42;99257.16;6233452;27;125781;-58
2021/01/18 00:28:07;;;;;;;;;56.80;45.00;;;;;-0.55;37.29;99227.56;6234969;28;126341;-57
2021/01/18 00:31:09;;;;;;;;;60.00;46.00;;;;;-0.51;37.35;99248.34;6235757;27;127319;-57
2021/01/18 00:34:11;;;;;;;;;60.80;46.00;;;;;-0.45;37.29;99265.47;6235162;28;127078;-57
2021/01/18 00:37:12;;;;;;;;;61.00;44.80;;;;;-0.49;37.43;99272.84;6230055;28;124310;-57
2021/01/18 00:40:16;;;;;;;;;62.40;46.00;;;;;-0.72;37.74;99242.38;6234083;27;125977;-57
2021/01/18 00:43:17;;;;;;;;;60.00;47.00;;;;;-0.59;37.73;99279.16;6228567;27;124793;-57
2021/01/18 00:46:19;;;;;;;;;63.40;49.00;;;;;-0.92;38.00;99230.13;6211139;28;126799;-57
2021/01/18 00:49:21;;;;;;;;;61.40;48.00;;;;;-0.51;38.08;99279.28;6225867;28;127122;-57
2021/01/18 00:52:22;;;;;;;;;62.00;47.00;;;;;-0.49;38.13;99280.78;6232247;27;127566;-57
2021/01/18 00:55:24;;;;;;;;;65.40;48.00;;;;;-0.49;38.10;99285.28;6233919;28;125354;-57
2021/01/18 00:58:49;;;;;;;;;65.00;49.20;;;;;-0.54;37.96;99266.34;6222599;28;126373;-57
2021/01/18 01:02:11;;;;;;;;;62.60;49.00;;;;;-0.57;38.28;99264.78;6222657;27;124519;-57
2021/01/18 01:05:19;;;;;;;;;66.00;50.60;;;;;-0.44;38.14;99278.56;6233814;27;124987;-57
2021/01/18 01:08:21;;;;;;;;;66.00;51.00;;;;;-0.52;38.15;99267.84;6208963;28;125727;-57
2021/01/18 01:11:22;;;;;;;;;66.00;51.00;;;;;-0.43;38.27;99280.22;6232969;27;128726;-57
2021/01/18 01:14:23;;;;;;;;;69.00;52.00;;;;;-0.46;38.08;99279.69;6216529;28;125808;-57
2021/01/18 01:17:25;;;;;;;;;69.00;53.00;;;;;-0.94;38.17;99206.47;6234905;27;126179;-57
2021/01/18 01:20:27;;;;;;;;;70.50;53.00;;;;;-1.32;38.25;99158.88;6235356;27;125155;-56
2021/01/18 01:23:28;;;;;;;;;68.50;53.00;;;;;-0.63;38.42;99277.75;6210596;28;125188;-56
2021/01/18 01:26:30;;;;;;;;;71.00;53.00;;;;;-0.71;39.07;99275.81;6220283;28;125265;-57
2021/01/18 01:29:31;;;;;;;;;69.60;52.80;;;;;-0.54;38.54;99277.72;6218250;27;125275;-57
2021/01/18 01:32:33;;;;;;;;;72.00;53.00;;;;;-0.44;38.03;99277.75;6227095;27;124737;-57
2021/01/18 01:35:35;;;;;;;;;67.00;51.00;;;;;-0.79;38.39;99217.47;6212272;28;127130;-57
2021/01/18 01:38:36;;;;;;;;;65.00;49.60;;;;;-0.74;37.88;99280.56;6209291;28;127458;-57
2021/01/18 01:41:38;;;;;;;;;63.80;48.00;;;;;-1.10;37.67;99222.06;6208956;28;124557;-57
2021/01/18 01:44:39;;;;;;;;;64.25;48.00;;;;;-1.01;38.10;99287.38;6182434;28;126741;-58
2021/01/18 01:47:54;;;;;;;;;67.00;50.00;;;;;-1.19;38.43;99288.22;6225968;28;123859;-57
2021/01/18 01:50:56;;;;;;;;;64.00;49.00;;;;;-1.14;38.67;99297.41;6233748;28;125935;-57
2021/01/18 01:53:59;;;;;;;;;65.60;49.20;;;;;-1.22;38.85;99302.53;6232610;27;127466;-57
2021/01/18 01:57:03;;;;;;;;;66.25;49.25;;;;;-1.37;38.83;99301.28;6232145;28;124534;-56
2021/01/18 02:00:05;;;;;;;;;66.00;50.00;;;;;-1.45;38.70;99301.09;6231574;28;124869;-56
2021/01/18 02:03:34;;;;;;;;;67.60;50.00;;;;;-1.51;38.95;99312.22;6232508;27;126052;-56
2021/01/18 02:06:35;;;;;;;;;66.00;49.40;;;;;-1.51;39.31;99306.94;6226438;28;124835;-56
2021/01/18 02:09:37;;;;;;;;;64.20;48.20;;;;;-1.56;39.08;99312.63;6234854;27;125363;-56
2021/01/18 02:12:39;;;;;;;;;64.00;49.00;;;;;-1.75;39.38;99297.53;6231311;28;127618;-56
2021/01/18 02:16:01;;;;;;;;;63.20;48.00;;;;;-1.65;39.14;99302.03;6235320;27;125886;-57
2021/01/18 02:19:21;;;;;;;;;63.75;47.25;;;;;-1.71;39.53;99297.28;6219435;27;125944;-56
2021/01/18 02:22:48;;;;;;;;;65.60;50.20;;;;;-1.83;39.76;99302.66;6213676;28;125992;-58
2021/01/18 02:25:53;;;;;;;;;64.25;47.25;;;;;-1.87;39.51;99253.69;6228465;27;126322;-56
2021/01/18 02:29:28;;;;;;;;;65.00;48.00;;;;;-1.49;39.45;99279.41;6216725;28;123879;-56
2021/01/18 02:32:53;;;;;;;;;65.60;49.60;;;;;-1.47;39.25;99288.03;6211361;28;126632;-57
2021/01/18 02:36:01;;;;;;;;;68.60;50.60;;;;;-1.47;39.27;99282.75;6227981;28;124032;-57
2021/01/18 02:39:27;;;;;;;;;66.75;50.00;;;;;-1.55;39.42;99285.22;6209102;28;125116;-57
2021/01/18 02:42:31;;;;;;;;;67.00;51.00;;;;;-1.91;39.22;99246.19;6209795;28;126122;-58
2021/01/18 02:45:35;;;;;;;;;67.00;51.00;;;;;-1.68;39.07;99283.78;6207960;28;124604;-57
2021/01/18 02:48:38;;;;;;;;;69.20;50.40;;;;;-1.73;39.37;99278.06;6219311;28;124610;-56
2021/01/18 02:51:46;;;;;;;;;66.20;50.00;;;;;-1.99;39.35;99228.34;6233207;27;128165;-57
2021/01/18 02:54:48;;;;;;;;;65.00;50.00;;;;;-1.81;39.65;99278.75;6219563;28;124844;-56
2021/01/18 02:57:52;;;;;;;;;64.80;49.00;;;;;-1.66;39.23;99274.75;6215848;28;125329;-56
2021/01/18 03:01:06;;;;;;;;;65.25;48.50;;;;;-1.89;39.53;99255.63;6213972;28;126112;-56
2021/01/18 03:04:25;;;;;;;;;61.40;47.20;;;;;-1.71;39.52;99270.84;6220498;28;124582;-56
2021/01/18 03:07:30;;;;;;;;;63.60;48.00;;;;;-1.56;39.27;99275.59;6233162;28;126696;-57
2021/01/18 03:10:52;;;;;;;;;61.60;46.60;;;;;-1.54;39.05;99281.59;6233905;27;125922;-56
2021/01/18 03:14:02;;;;;;;;;65.40;47.20;;;;;-1.48;39.16;99281.06;6232024;27;125541;-57
2021/01/18 03:17:05;;;;;;;;;63.20;48.00;;;;;-1.50;39.37;99283.00;6231940;28;125980;-57
2021/01/18 03:20:08;;;;;;;;;65.60;49.60;;;;;-1.40;38.98;99268.00;6210856;27;126137;-59
2021/01/18 03:23:11;;;;;;;;;67.00;50.25;;;;;-1.33;38.77;99270.94;6210564;28;125702;-58
2021/01/18 03:26:13;;;;;;;;;66.00;50.00;;;;;-1.32;39.00;99269.97;6212087;28;124131;-57
2021/01/18 03:29:16;;;;;;;;;65.00;50.00;;;;;-1.37;38.79;99272.19;6209883;27;127196;-57
2021/01/18 03:32:18;;;;;;;;;68.00;51.00;;;;;-1.37;38.98;99262.41;6209470;28;124123;-57
2021/01/18 03:35:21;;;;;;;;;66.00;50.00;;;;;-1.42;38.77;99266.47;6230160;28;126417;-57
2021/01/18 03:38:23;;;;;;;;;64.33;48.00;;;;;-1.63;39.06;99248.06;6232979;28;125000;-57
2021/01/18 03:41:25;;;;;;;;;65.40;49.40;;;;;-1.42;39.12;99272.56;6232458;27;125083;-57
2021/01/18 03:44:26;;;;;;;;;68.00;50.00;;;;;-1.33;38.82;99271.78;6229827;27;126086;-57
2021/01/18 03:47:29;;;;;;;;;65.20;50.00;;;;;-1.32;38.82;99272.63;6231190;27;124320;-57
2021/01/18 03:50:30;;;;;;;;;63.33;49.00;;;;;-1.43;38.84;99259.50;6231375;27;127680;-57
2021/01/18 03:53:31;;;;;;;;;64.00;49.67;;;;;-1.23;38.97;99271.78;6216237;28;125881;-57
2021/01/18 03:56:40;;;;;;;;;61.67;47.00;;;;;-1.50;38.73;99232.75;6231491;27;126275;-58
2021/01/18 03:59:41;;;;;;;;;63.00;46.60;;;;;-1.18;38.63;99272.22;6193085;28;123549;-57
2021/01/18 04:02:45;;;;;;;;;56.80;44.40;;;;;-1.15;38.79;99279.84;6230083;27;126703;-57
2021/01/18 04:05:46;;;;;;;;;61.00;45.33;;;;;-1.19;38.46;99273.19;6231163;27;126593;-58
2021/01/18 04:08:48;;;;;;;;;60.40;46.60;;;;;-1.29;38.23;99269.69;6230515;27;125808;-57
2021/01/18 04:11:50;;;;;;;;;61.00;45.80;;;;;-1.26;38.85;99282.63;6225349;27;126286;-57
2021/01/18 04:14:51;;;;;;;;;58.40;45.00;;;;;-1.23;38.58;99269.13;6230242;27;126645;-57
2021/01/18 04:17:54;;;;;;;;;62.00;45.00;;;;;-1.18;38.71;99263.44;6226879;28;126428;-57
2021/01/18 04:20:56;;;;;;;;;58.60;45.60;;;;;-1.26;38.85;99242.94;6210396;28;126372;-56
2021/01/18 04:23:57;;;;;;;;;59.80;44.20;;;;;-1.20;38.55;99263.56;6217446;27;126633;-57
2021/01/18 04:27:02;;;;;;;;;55.00;44.00;;;;;-1.24;38.53;99248.94;6241712;27;125774;-57
2021/01/18 04:30:06;;;;;;;;;59.40;44.00;;;;;-1.53;38.57;99213.69;6230633;28;127640;-57
2021/01/18 04:33:09;;;;;;;;;55.00;43.80;;;;;-1.50;38.50;99245.16;6207708;28;123433;-57
2021/01/18 04:36:10;;;;;;;;;59.50;45.00;;;;;-1.88;38.54;99190.41;6209779;28;125236;-56
2021/01/18 04:39:12;;;;;;;;;56.80;43.60;;;;;-1.49;38.65;99237.09;6230552;27;125564;-57
2021/01/18 04:42:14;;;;;;;;;57.25;44.00;;;;;-1.59;38.74;99219.53;6215933;27;126519;-57
2021/01/18 04:45:19;;;;;;;;;55.40;44.00;;;;;-1.38;38.86;99234.31;6206310;28;125141;-56
2021/01/18 04:48:21;;;;;;;;;55.00;42.80;;;;;-1.24;38.62;99246.31;6213131;28;126097;-57
2021/01/18 04:51:23;;;;;;;;;54.40;43.00;;;;;-1.18;38.38;99242.28;6228130;28;124781;-57
2021/01/18 04:54:26;;;;;;;;;53.50;41.50;;;;;-1.12;38.15;99244.34;6229140;28;123327;-58
2021/01/18 04:57:37;;;;;;;;;53.60;42.00;;;;;-1.22;38.46;99235.59;6229669;27;124992;-57
2021/01/18 05:00:43;;;;;;;;;56.40;43.40;;;;;-1.16;38.52;99243.78;6221934;28;126532;-58
2021/01/18 05:04:01;;;;;;;;;56.75;43.00;;;;;-1.05;38.51;99248.94;6212213;28;122466;-58
2021/01/18 05:07:33;;;;;;;;;53.60;41.80;;;;;-1.05;38.18;99245.47;6224656;27;126756;-57
2021/01/18 05:10:41;;;;;;;;;53.25;43.25;;;;;-1.02;38.22;99238.06;6232469;28;126520;-57
2021/01/18 05:13:44;;;;;;;;;55.60;42.00;;;;;-1.01;38.18;99245.03;6232708;28;124777;-57
2021/01/18 05:16:57;;;;;;;;;54.20;42.60;;;;;-1.04;38.21;99242.69;6205499;28;125134;-57
2021/01/18 05:19:59;;;;;;;;;54.20;42.00;;;;;-1.11;38.51;99241.56;6225663;27;125707;-57
2021/01/18 05:23:07;;;;;;;;;54.00;43.00;;;;;-1.19;38.46;99243.25;6233750;27;124188;-57
2021/01/18 05:26:25;;;;;;;;;56.60;43.60;;;;;-1.01;38.46;99254.78;6234947;27;126576;-57
2021/01/18 05:29:31;;;;;;;;;57.75;43.50;;;;;-1.25;38.18;99218.16;6231983;27;126035;-57
2021/01/18 05:32:33;;;;;;;;;55.00;43.80;;;;;-0.95;38.44;99256.88;6209338;28;125702;-56
2021/01/18 05:35:39;;;;;;;;;55.60;43.00;;;;;-1.02;38.39;99255.75;6208597;28;126512;-58
2021/01/18 05:38:41;;;;;;;;;56.75;45.00;;;;;-1.01;38.43;99265.38;6208560;28;125504;-57
2021/01/18 05:41:45;;;;;;;;;53.40;43.00;;;;;-1.03;38.25;99268.19;6229396;28;125608;-57
2021/01/18 05:44:47;;;;;;;;;56.50;44.25;;;;;-1.04;37.99;99277.09;6231523;28;124745;-57
2021/01/18 05:47:48;;;;;;;;;56.33;44.00;;;;;-0.96;38.10;99271.09;6231045;28;124166;-57
2021/01/18 05:51:02;;;;;;;;;59.40;44.00;;;;;-0.92;38.09;99268.03;6231918;27;124644;-57
2021/01/18 05:54:05;;;;;;;;;60.80;45.80;;;;;-1.18;37.86;99240.47;6231476;28;127074;-57
2021/01/18 05:57:07;;;;;;;;;59.80;45.20;;;;;-0.94;38.06;99275.28;6232791;28;126521;-57
2021/01/18 06:00:09;;;;;;;;;60.20;45.00;;;;;-1.09;38.19;99281.13;6233438;27;125975;-57
2021/01/18 06:03:11;;;;;;;;;61.00;46.00;;;;;-1.13;38.18;99255.91;6216026;28;125351;-57
2021/01/18 06:06:25;;;;;;;;;61.00;46.00;;;;;-1.17;38.17;99267.75;6233677;27;126751;-57
2021/01/18 06:09:46;;;;;;;;;62.00;46.00;;;;;-1.20;38.22;99257.44;6214890;27;124881;-57
2021/01/18 06:12:48;;;;;;;;;61.75;47.00;;;;;-1.28;38.41;99268.72;6215320;28;124898;-56
2021/01/18 06:16:09;;;;;;;;;61.60;46.80;;;;;-1.25;38.50;99279.00;6215064;28;125820;-57
2021/01/18 06:19:19;;;;;;;;;60.00;46.00;;;;;-1.27;38.13;99251.03;6205311;28;126070;-57
2021/01/18 06:22:26;;;;;;;;;58.60;46.00;;;;;-1.17;38.30;99263.28;6209762;28;127934;-57
2021/01/18 06:25:36;;;;;;;;;60.00;46.00;;;;;-1.40;38.05;99215.09;6219735;28;125193;-57
2021/01/18 06:28:38;;;;;;;;;59.50;45.75;;;;;-1.27;38.08;99230.69;6231757;28;126680;-57
2021/01/18 06:31:45;;;;;;;;;59.80;45.00;;;;;-1.01;38.06;99262.72;6232605;28;124928;-57
2021/01/18 06:34:56;;;;;;;;;60.25;45.00;;;;;-1.05;38.18;99271.94;6231965;28;127247;-56
2021/01/18 06:38:02;;;;;;;;;60.80;45.00;;;;;-1.13;37.95;99254.13;6224048;28;126012;-57
2021/01/18 06:41:06;;;;;;;;;52.40;42.20;;;;;-1.27;37.97;99243.91;6230337;28;124917;-57
2021/01/18 06:44:08;;;;;;;;;59.40;44.00;;;;;-1.15;38.17;99263.97;6230704;28;126003;-56
2021/01/18 06:47:26;;;;;;;;;56.60;42.20;;;;;-1.13;37.87;99259.41;6232883;28;126471;-57
2021/01/18 06:50:38;;;;;;;;;56.75;44.00;;;;;-1.23;38.16;99263.00;6232894;28;125916;-57
2021/01/18 06:53:44;;;;;;;;;56.60;43.60;;;;;-1.47;38.23;99237.81;6230849;28;126672;-57
2021/01/18 06:57:20;;;;;;;;;56.75;44.00;;;;;-1.32;38.65;99264.69;6233282;28;124650;-57
2021/01/18 07:00:22;;;;;;;;;55.80;44.00;;;;;-1.79;38.71;99214.22;6208967;28;126171;-57
2021/01/18 07:03:42;;;;;;;;;58.40;45.80;;;;;-1.43;38.49;99268.28;6208274;28;127268;-57
2021/01/18 07:06:44;;;;;;;;;56.60;44.60;;;;;-1.33;38.44;99273.59;6208736;28;127031;-59
2021/01/18 07:09:55;;;;;;;;;57.60;45.00;;;;;-1.41;38.37;99279.53;6174155;28;125247;-58
2021/01/18 07:12:58;;;;;;;;;57.00;44.40;;;;;-1.46;38.33;99262.41;6232167;28;124858;-58
2021/01/18 07:16:21;;;;;;;;;59.75;45.00;;;;;-1.36;38.51;99276.47;6233100;28;125960;-58
2021/01/18 07:19:34;;;;;;;;;59.50;45.00;;;;;-1.48;38.21;99262.56;6233246;28;124750;-59
2021/01/18 07:22:53;;;;;;;;;60.33;45.33;;;;;-1.43;38.38;99267.44;6230848;28;127797;-58
2021/01/18 07:26:21;;;;;;;;;59.00;46.25;;;;;-1.34;38.16;99282.47;6208732;28;124523;-57
2021/01/18 07:29:25;;;;;;;;;59.50;45.50;;;;;-1.19;37.94;99289.03;6220180;27;126680;-57
2021/01/18 07:32:26;;;;;;;;;57.60;45.00;;;;;-1.12;37.63;99287.50;6230207;28;128309;-58
2021/01/18 07:35:32;;;;;;;;;57.75;43.25;;;;;-0.99;37.30;99301.31;6233092;28;127245;-59
2021/01/18 07:38:37;;;;;;;;;57.00;45.00;;;;;-0.78;37.06;99295.06;6232186;28;126854;-59
2021/01/18 07:41:38;;;;;;;;;58.00;45.00;;;;;-0.66;36.53;99270.09;6232497;28;126943;-61
2021/01/18 07:44:44;;;;;;;;;57.60;45.00;;;;;-0.22;36.29;99303.91;6214833;28;124226;-60
2021/01/18 07:47:55;;;;;;;;;60.60;46.00;;;;;0.24;35.36;99308.34;6199150;28;124804;-58
2021/01/18 07:51:00;;;;;;;;;57.00;44.00;;;;;0.81;34.09;99301.91;6207386;28;124829;-59
2021/01/18 07:54:03;;;;;;;;;57.25;45.25;;;;;1.19;33.49;99279.53;6206750;28;126106;-58
2021/01/18 07:57:27;;;;;;;;;60.00;45.00;;;;;1.74;32.48;99274.81;6207224;28;125096;-59
2021/01/18 08:00:32;;;;;;;;;63.00;48.00;;;;;2.49;31.55;99306.97;6208498;28;125877;-59
2021/01/18 08:03:37;;;;;;;;;59.00;46.00;;;;;3.18;30.81;99297.81;6210767;28;125875;-59
2021/01/18 08:07:01;;;;;;;;;60.00;46.00;;;;;3.96;29.38;99284.81;6229692;28;124956;-58
2021/01/18 08:10:03;;;;;;;;;60.40;46.20;;;;;4.79;28.28;99289.47;6231539;28;126052;-58
2021/01/18 08:13:27;;;;;;;;;59.50;46.50;;;;;5.35;27.14;99283.97;6201541;28;126182;-59
2021/01/18 08:16:40;;;;;;;;;60.40;46.00;;;;;6.08;26.55;99286.84;6211847;28;126577;-59
2021/01/18 08:20:16;;;;;;;;;55.80;43.60;;;;;6.74;25.46;99282.41;6231039;28;123453;-58
2021/01/18 08:23:43;;;;;;;;;57.20;44.60;;;;;7.41;24.41;99272.19;6229499;28;126359;-59
2021/01/18 08:27:03;;;;;;;;;59.60;45.00;;;;;8.07;23.89;99283.47;6231059;28;125848;-58
2021/01/18 08:30:18;;;;;;;;;58.00;45.00;;;;;9.03;23.14;99287.94;6213917;28;126608;-58
2021/01/18 08:33:24;;;;;;;;;58.25;45.25;;;;;9.67;22.24;99295.53;6228592;28;125890;-59
2021/01/18 08:36:32;;;;;;;;;61.20;46.00;;;;;10.24;21.46;99294.91;6201983;28;125170;-59
2021/01/18 08:39:40;;;;;;;;;58.60;45.00;;;;;10.43;21.02;99256.31;6188204;28;125969;-59
2021/01/18 08:42:45;;;;;;;;;58.40;44.00;;;;;11.02;20.67;99264.16;6208781;28;125806;-59
2021/01/18 08:45:49;;;;;;;;;56.40;44.00;;;;;11.65;19.73;99259.59;6193245;28;125616;-58
2021/01/18 08:49:31;;;;;;;;;58.20;44.00;;;;;12.48;19.42;99294.44;6230839;28;125996;-59
2021/01/18 08:52:35;;;;;;;;;56.00;44.00;;;;;12.99;19.00;99303.03;6226064;28;127217;-60
2021/01/18 08:55:36;;;;;;;;;55.60;43.00;;;;;13.28;18.50;99309.56;6211494;28;124957;-59
2021/01/18 08:58:40;;;;;;;;;57.00;43.00;;;;;13.59;18.12;99305.75;6211659;28;125508;-59
2021/01/18 09:01:41;;;;;;;;;57.00;44.00;;;;;13.79;17.97;99303.59;6211227;28;127045;-59
2021/01/18 09:04:43;;;;;;;;;56.00;44.00;;;;;13.52;17.75;99250.03;6210979;28;127038;-58
2021/01/18 09:07:46;;;;;;;;;57.40;43.00;;;;;13.84;17.56;99268.47;6193546;28;128387;-60
2021/01/18 09:10:55;;;;;;;;;56.00;43.00;;;;;14.23;17.10;99294.09;6219374;28;126229;-59
2021/01/18 09:13:56;;;;;;;;;53.20;41.40;;;;;14.45;17.10;99285.41;6222961;27;126917;-59
2021/01/18 09:17:10;;;;;;;;;53.40;42.00;;;;;14.59;16.81;99270.53;6193361;28;126202;-59
2021/01/18 09:20:14;;;;;;;;;55.00;43.60;;;;;15.13;16.47;99291.75;6209949;28;126147;-59
2021/01/18 09:23:16;;;;;;;;;55.00;43.00;;;;;15.47;16.23;99292.69;6211633;28;125084;-59
2021/01/18 09:26:39;;;;;;;;;52.00;41.00;;;;;15.70;16.13;99290.94;6220027;28;126133;-58
2021/01/18 09:29:57;;;;;;;;;52.00;41.00;;;;;15.86;15.88;99277.38;6218260;28;127363;-60
2021/01/18 09:33:00;;;;;;;;;50.40;40.60;;;;;16.02;15.80;99275.75;6235366;28;123937;-60
2021/01/18 09:36:03;;;;;;;;;52.00;40.00;;;;;16.19;15.80;99273.00;6217944;28;126594;-59
2021/01/18 09:39:05;;;;;;;;;52.60;42.00;;;;;16.46;15.63;99266.63;6222102;28;127193;-59
2021/01/18 09:42:29;;;;;;;;;49.80;40.00;;;;;16.26;15.33;99220.06;6197120;28;125651;-59
2021/01/18 09:45:33;;;;;;;;;49.00;40.00;;;;;16.57;15.00;99262.13;6209993;28;125527;-60
2021/01/18 09:48:34;;;;;;;;;52.00;40.00;;;;;16.60;15.02;99220.84;6233042;28;126331;-60
2021/01/18 09:51:36;;;;;;;;;51.00;40.00;;;;;17.00;14.82;99263.25;6235510;28;124216;-59
2021/01/18 09:54:46;;;;;;;;;48.20;37.60;;;;;16.96;15.02;99234.91;6234044;27;126082;-59
2021/01/18 09:58:14;;;;;;;;;52.00;40.00;;;;;17.19;14.58;99256.41;6217882;28;125584;-59
2021/01/18 10:01:17;;;;;;;;;52.00;42.00;;;;;17.22;14.55;99253.16;6209999;28;125836;-59
2021/01/18 10:04:23;;;;;;;;;50.00;41.00;;;;;17.26;14.71;99251.56;6236412;28;125918;-58
2021/01/18 10:07:26;;;;;;;;;50.80;41.40;;;;;17.22;14.95;99224.00;6217235;28;124115;-59
2021/01/18 10:10:28;;;;;;;;;51.80;40.00;;;;;17.56;14.50;99237.41;6235340;28;125128;-60
2021/01/18 10:13:38;;;;;;;;;53.40;42.00;;;;;17.58;14.37;99197.94;6218001;28;124674;-59
2021/01/18 10:17:05;;;;;;;;;56.60;44.00;;;;;17.94;14.32;99236.41;6235143;28;127287;-60
2021/01/18 10:20:07;;;;;;;;;55.00;43.40;;;;;17.96;14.18;99237.81;6236088;28;127020;-59
2021/01/18 10:23:15;;;;;;;;;55.60;43.40;;;;;17.68;14.10;99200.78;6234776;28;125060;-59
2021/01/18 10:26:19;;;;;;;;;53.00;41.20;;;;;17.69;14.16;99221.47;6215033;28;127266;-61
2021/01/18 10:29:22;;;;;;;;;52.00;43.00;;;;;17.92;14.07;99238.59;6174307;28;125383;-61
2021/01/18 10:32:46;;;;;;;;;53.75;43.00;;;;;18.08;14.25;99238.44;6209026;28;127189;-59
2021/01/18 10:35:52;;;;;;;;;53.00;42.60;;;;;18.08;14.28;99232.19;6209669;28;125679;-59
2021/01/18 10:38:53;;;;;;;;;57.20;44.00;;;;;17.93;13.93;99224.72;6217842;28;125055;-59
2021/01/18 10:42:19;;;;;;;;;57.00;44.50;;;;;17.92;14.11;99230.41;6225263;28;124788;-59
2021/01/18 10:45:26;;;;;;;;;57.00;44.00;;;;;17.82;14.25;99227.59;6232974;28;125964;-58
2021/01/18 10:48:30;;;;;;;;;56.20;42.00;;;;;17.63;14.09;99235.34;6208646;28;127339;-60
2021/01/18 10:51:35;;;;;;;;;53.00;43.00;;;;;17.28;14.04;99233.91;6232572;28;125962;-61
2021/01/18 10:54:37;;;;;;;;;53.00;41.50;;;;;17.15;14.40;99228.03;6250721;27;127696;-60
2021/01/18 10:57:40;;;;;;;;;55.00;44.00;;;;;16.52;14.49;99225.88;6213871;28;125204;-59
2021/01/18 11:00:42;;;;;;;;;53.60;43.60;;;;;16.33;14.69;99219.88;6214880;28;124185;-59
2021/01/18 11:03:44;;;;;;;;;53.60;42.00;;;;;16.21;15.10;99198.22;6229727;28;127199;-58
2021/01/18 11:06:49;;;;;;;;;55.00;43.25;;;;;16.39;14.91;99218.88;6232032;28;123930;-59
2021/01/18 11:10:00;;;;;;;;;55.60;42.60;;;;;16.45;14.84;99221.44;6198316;28;125324;-59
2021/01/18 11:13:11;;;;;;;;;55.50;43.00;;;;;16.49;14.74;99229.91;6232472;28;125896;-60
2021/01/18 11:16:16;;;;;;;;;55.60;42.60;;;;;16.09;14.66;99183.06;6233021;28;125111;-60
2021/01/18 11:19:23;;;;;;;;;52.00;40.00;;;;;16.18;14.98;99223.19;6203896;28;124613;-59
2021/01/18 11:22:24;;;;;;;;;50.75;41.25;;;;;16.12;15.14;99216.06;6230846;28;124470;-59
2021/01/18 11:25:27;;;;;;;;;52.25;42.00;;;;;15.84;15.02;99210.69;6195938;28;126636;-60
2021/01/18 11:28:30;;;;;;;;;52.00;41.00;;;;;15.71;15.11;99194.72;6220136;28;125846;-58
2021/01/18 11:31:35;;;;;;;;;51.75;39.25;;;;;15.62;15.47;99210.63;6186428;28;125917;-60
2021/01/18 11:34:37;;;;;;;;;50.00;38.00;;;;;15.76;15.41;99202.97;6232379;28;126554;-58
2021/01/18 11:37:39;;;;;;;;;46.50;38.50;;;;;15.83;15.44;99198.22;6221952;28;126504;-61
2021/01/18 11:40:42;;;;;;;;;44.00;35.75;;;;;15.84;15.28;99207.97;6219608;28;126417;-59
2021/01/18 11:43:43;;;;;;;;;38.00;32.20;;;;;15.73;15.25;99193.44;6231473;28;127019;-58
2021/01/18 11:46:46;;;;;;;;;43.50;36.00;;;;;15.53;15.60;99190.38;6231340;28;97836;-59
2021/01/18 11:49:47;;;;;;;;;40.20;33.80;;;;;15.16;15.67;99138.34;6207815;28;126140;-57
2021/01/18 11:52:54;;;;;;;;;39.00;35.00;;;;;15.53;15.56;99187.66;6223584;28;127094;-59
2021/01/18 11:55:56;;;;;;;;;44.40;35.00;;;;;15.13;15.65;99177.69;6224175;28;126129;-59
2021/01/18 11:58:59;;;;;;;;;40.75;33.75;;;;;14.87;15.83;99155.72;6228217;28;124282;-59
2021/01/18 12:02:01;;;;;;;;;45.00;35.60;;;;;14.65;15.97;99129.28;6229696;28;127018;-59
2021/01/18 12:05:05;;;;;;;;;44.00;35.80;;;;;14.47;16.08;99145.72;6232226;28;126577;-59
2021/01/18 12:08:06;;;;;;;;;48.50;38.00;;;;;14.65;16.31;99175.44;6232618;28;125936;-59
2021/01/18 12:11:07;;;;;;;;;50.25;39.25;;;;;14.63;16.35;99172.13;6231341;28;129409;-59
2021/01/18 12:14:09;;;;;;;;;46.80;36.00;;;;;14.53;16.39;99166.47;6230715;28;127272;-58
2021/01/18 12:17:10;;;;;;;;;49.00;38.00;;;;;14.57;16.61;99166.81;6230731;28;123796;-58
2021/01/18 12:20:15;;;;;;;;;45.80;36.00;;;;;14.54;16.55;99160.00;6232305;28;127091;-59
2021/01/18 12:23:18;;;;;;;;;47.40;39.00;;;;;14.54;16.88;99170.84;6231267;28;123730;-59
2021/01/18 12:26:20;;;;;;;;;47.00;37.00;;;;;14.43;16.48;99143.75;6229991;28;124978;-59
2021/01/18 12:29:22;;;;;;;;;47.00;39.00;;;;;14.23;16.68;99172.06;6231984;28;127905;-59
2021/01/18 12:32:23;;;;;;;;;46.60;37.60;;;;;13.84;17.28;99170.09;6230652;28;125400;-59
2021/01/18 12:35:25;;;;;;;;;48.60;38.00;;;;;13.70;17.33;99163.25;6225624;28;126975;-60
2021/01/18 12:38:27;;;;;;;;;49.60;38.00;;;;;13.46;17.37;99170.53;6228846;28;126225;-59
2021/01/18 12:41:28;;;;;;;;;48.50;37.75;;;;;13.03;18.15;99162.63;6222950;28;124660;-59
2021/01/18 12:44:29;;;;;;;;;51.00;40.00;;;;;12.59;18.01;99150.34;6230707;28;125561;-59
2021/01/18 12:47:31;;;;;;;;;47.00;38.20;;;;;11.83;18.86;99155.38;6216772;28;126992;-59
2021/01/18 12:50:32;;;;;;;;;47.40;38.40;;;;;11.79;18.96;99156.88;6196946;28;125370;-59
2021/01/18 12:53:43;;;;;;;;;50.00;40.00;;;;;11.55;19.45;99155.81;6207817;28;125364;-58
2021/01/18 12:56:45;;;;;;;;;50.20;39.00;;;;;11.08;19.49;99160.78;6197407;28;124916;-59
2021/01/18 12:59:46;;;;;;;;;52.00;42.60;;;;;10.72;19.86;99147.94;6229644;28;126971;-59
2021/01/18 13:02:48;;;;;;;;;50.00;40.60;;;;;10.00;20.43;99135.56;6213296;28;126336;-59
2021/01/18 13:05:52;;;;;;;;;52.20;41.00;;;;;9.70;21.09;99155.09;6223201;28;125150;-58
2021/01/18 13:08:53;;;;;;;;;53.50;43.00;;;;;9.32;21.31;99125.34;6222565;28;126371;-60
2021/01/18 13:11:55;;;;;;;;;54.40;41.00;;;;;9.00;21.74;99151.19;6231196;28;126797;-59
2021/01/18 13:14:56;;;;;;;;;55.00;43.00;;;;;8.21;22.36;99091.81;6231768;28;125550;-61
2021/01/18 13:17:58;;;;;;;;;55.40;44.00;;;;;8.57;22.62;99156.06;6225129;28;125393;-58
2021/01/18 13:20:59;;;;;;;;;55.40;44.00;;;;;8.19;22.53;99120.75;6199139;28;127406;-59
2021/01/18 13:24:01;;;;;;;;;59.50;44.50;;;;;8.42;23.09;99150.00;6229846;28;126567;-59
2021/01/18 13:27:03;;;;;;;;;54.20;43.00;;;;;8.50;22.84;99150.66;6230252;27;127068;-60
2021/01/18 13:30:05;;;;;;;;;53.00;43.00;;;;;8.45;22.72;99150.44;6221044;28;126412;-59
2021/01/18 13:33:08;;;;;;;;;57.60;45.20;;;;;8.38;23.12;99154.97;6226159;28;124555;-60
2021/01/18 13:36:21;;;;;;;;;56.00;44.00;;;;;8.14;23.19;99142.03;6230949;28;125413;-59
2021/01/18 13:39:23;;;;;;;;;57.50;44.50;;;;;7.99;23.55;99152.91;6223847;28;125574;-59
2021/01/18 13:42:24;;;;;;;;;54.25;42.25;;;;;7.71;23.69;99144.91;6210026;28;126604;-59
2021/01/18 13:45:26;;;;;;;;;56.00;44.00;;;;;7.28;24.04;99101.25;6224010;28;125543;-58
2021/01/18 13:48:27;;;;;;;;;55.40;44.60;;;;;7.22;24.54;99125.34;6213493;28;128027;-59
2021/01/18 13:51:29;;;;;;;;;55.60;43.40;;;;;7.14;24.71;99160.31;6216410;28;125490;-60
2021/01/18 13:54:31;;;;;;;;;55.33;45.00;;;;;6.85;24.83;99142.53;6234879;28;126647;-59
2021/01/18 13:57:41;;;;;;;;;56.50;43.50;;;;;6.75;25.29;99156.25;6233654;28;126053;-59
2021/01/18 14:00:43;;;;;;;;;56.00;42.00;;;;;6.55;25.54;99144.50;6216626;28;126098;-60
2021/01/18 14:03:46;;;;;;;;;52.00;42.40;;;;;6.49;25.72;99151.47;6215151;28;126429;-61
2021/01/18 14:06:47;;;;;;;;;58.00;44.00;;;;;5.96;25.93;99101.78;6218675;28;125210;-60